»·PEaware :: N204LE KVGT-KAVX

N204LE :: KVGT-KAVX

FLIGHT INFORMATION

Flight Status: Arrived
Operator: Privately registered:
United States
More flights under this callsign
Pilot: Bill F. (18685)
Aircraft: PIPER PA-31/31P NAVAJO CHIEFTAIN
(PA31)
More flights by this aircraft type
Origin: KVGT North Las Vegas
United States
Destination: KAVX Catalina
United States
More flights between these airports :: More routes between these airports
Route: +
File this flight plan on PilotEdge
Remarks:
Altitude:
(Current/Filed)
0ft
Speed:
(Current/Filed)
0kts
Departed: 21-Jan-20 06:47 PM
Arrived: 21-Jan-20 08:47 PM
Distance/Time
Traveled:
226nm/2:00
Distance/Time
To Go:
Arrived

Flight Plot

Page will automatically refresh every two minutes.

Flight plan parsing failed; only flown route is shown


Map Options




Map Legend


Flown Route
Filed Route
Departure Airport
Arrival Airport
Navaid (VOR, NDB)
Fix

Horizontal Profiles

Position Reports

Time Latitude Longitude Heading Altitude Ground
Speed
21-Jan-20 18:36 36.208247 -115.197778 177 2194ft 0kts
21-Jan-20 18:37 36.208247 -115.197778 177 2194ft 0kts
21-Jan-20 18:38 36.208247 -115.197778 177 2194ft 0kts
21-Jan-20 18:39 36.208247 -115.197778 177 2194ft 0kts
21-Jan-20 18:40 36.208573 -115.196806 314 2194ft 15kts
21-Jan-20 18:41 36.211182 -115.199415 315 2194ft 24kts
21-Jan-20 18:42 36.212497 -115.201017 3 2194ft 0kts
21-Jan-20 18:43 36.212497 -115.201017 3 2194ft 0kts
21-Jan-20 18:44 36.212497 -115.201017 3 2194ft 0kts
21-Jan-20 18:45 36.212673 -115.200688 94 2194ft 12kts
21-Jan-20 18:46 36.193489 -115.181213 188 3222ft 134kts
21-Jan-20 18:47 36.182758 -115.233507 271 4511ft 181kts
21-Jan-20 18:48 36.195166 -115.287808 291 4204ft 154kts
21-Jan-20 18:49 36.219575 -115.326527 336 4133ft 144kts
21-Jan-20 18:50 36.258303 -115.350150 331 5985ft 161kts
21-Jan-20 18:51 36.294833 -115.381107 312 8075ft 169kts
21-Jan-20 18:52 36.298196 -115.434403 237 9917ft 176kts
21-Jan-20 18:53 36.254667 -115.471925 212 10303ft 192kts
21-Jan-20 18:54 36.211126 -115.507172 216 10468ft 193kts
21-Jan-20 18:55 36.167431 -115.545973 217 10442ft 192kts
21-Jan-20 18:56 36.136487 -115.597679 247 10440ft 189kts
21-Jan-20 18:57 36.116346 -115.656891 249 10440ft 186kts
21-Jan-20 18:58 36.097929 -115.716797 249 10441ft 186kts
21-Jan-20 18:59 36.080172 -115.777151 251 10440ft 186kts
21-Jan-20 19:00 36.065217 -115.838598 254 10438ft 186kts
21-Jan-20 19:01 36.051253 -115.900124 254 10434ft 186kts
21-Jan-20 19:02 36.037253 -115.961689 254 10432ft 186kts
21-Jan-20 19:04 36.022944 -116.024652 254 10432ft 194kts
21-Jan-20 19:05 36.008267 -116.089450 254 10432ft 196kts
21-Jan-20 19:06 35.998017 -116.155833 262 10441ft 196kts
21-Jan-20 19:07 35.990026 -116.222589 262 10443ft 196kts
21-Jan-20 19:08 35.982067 -116.289400 262 10446ft 196kts
21-Jan-20 19:09 35.974100 -116.356517 262 10448ft 196kts
21-Jan-20 19:10 35.966045 -116.424476 262 10451ft 207kts
21-Jan-20 19:11 35.957625 -116.496212 262 10450ft 211kts
21-Jan-20 19:12 35.949117 -116.568630 262 10449ft 212kts
21-Jan-20 19:13 35.940762 -116.639842 262 10449ft 208kts
21-Jan-20 19:14 35.932410 -116.711008 261 10450ft 208kts
21-Jan-20 19:15 35.924069 -116.782210 261 10450ft 208kts
21-Jan-20 19:16 35.915775 -116.853137 262 10450ft 208kts
21-Jan-20 19:17 35.907508 -116.923282 262 10452ft 207kts
21-Jan-20 19:18 35.898624 -116.993602 262 10454ft 205kts
21-Jan-20 19:19 35.888828 -117.063885 262 10456ft 204kts
21-Jan-20 19:20 35.878126 -117.133120 262 10458ft 205kts
21-Jan-20 19:21 35.866963 -117.202360 262 10458ft 205kts
21-Jan-20 19:21 35.857720 -117.259831 262 10458ft 205kts
21-Jan-20 19:23 35.818127 -117.322349 199 7425ft 237kts
21-Jan-20 19:24 35.765011 -117.338109 193 6216ft 169kts
21-Jan-20 19:24 35.728525 -117.341758 183 6123ft 151kts
21-Jan-20 19:25 35.684275 -117.348359 189 6090ft 169kts
21-Jan-20 19:27 35.646663 -117.390755 253 6215ft 181kts
21-Jan-20 19:28 35.631045 -117.453711 258 5886ft 199kts
21-Jan-20 19:28 35.619875 -117.509684 250 6069ft 200kts
21-Jan-20 19:29 35.593700 -117.571616 242 6158ft 206kts
21-Jan-20 19:30 35.567600 -117.635038 249 5780ft 204kts
21-Jan-20 19:31 35.544836 -117.697350 243 5994ft 193kts
21-Jan-20 19:32 35.508648 -117.744270 225 7183ft 186kts
21-Jan-20 19:33 35.471093 -117.788590 227 8537ft 183kts
21-Jan-20 19:34 35.434768 -117.834506 230 8476ft 194kts
21-Jan-20 19:35 35.397183 -117.879852 227 8496ft 200kts
21-Jan-20 19:36 35.355783 -117.928723 227 8501ft 210kts
21-Jan-20 19:37 35.314403 -117.977478 227 8508ft 204kts
21-Jan-20 19:39 35.265986 -118.034403 226 8513ft 207kts
21-Jan-20 19:39 35.231276 -118.075494 227 8520ft 208kts
21-Jan-20 19:40 35.189462 -118.124511 227 8529ft 207kts
21-Jan-20 19:41 35.147638 -118.173315 227 8536ft 207kts
21-Jan-20 19:42 35.105836 -118.221767 227 8549ft 207kts
21-Jan-20 19:43 35.064070 -118.269995 227 8560ft 205kts
21-Jan-20 19:44 35.022546 -118.317785 227 8568ft 204kts
21-Jan-20 19:45 34.981148 -118.364909 227 8560ft 202kts
21-Jan-20 19:46 34.939870 -118.411389 227 8555ft 201kts
21-Jan-20 19:47 34.898651 -118.457328 227 8554ft 200kts
21-Jan-20 19:48 34.856855 -118.503505 227 8554ft 199kts
21-Jan-20 19:49 34.817075 -118.547369 227 8551ft 199kts
21-Jan-20 19:50 34.776036 -118.592580 227 8546ft 198kts
21-Jan-20 19:51 34.734650 -118.638243 227 8450ft 199kts
21-Jan-20 19:52 34.693746 -118.683405 227 8464ft 198kts
21-Jan-20 19:53 34.653085 -118.728755 227 8479ft 197kts
21-Jan-20 19:54 34.615312 -118.774181 246 8477ft 154kts
21-Jan-20 19:55 34.598138 -118.793078 245 7820ft 86kts
21-Jan-20 19:56 34.584688 -118.817449 240 6294ft 74kts
21-Jan-20 19:57 34.565879 -118.834181 213 6136ft 120kts
21-Jan-20 19:58 34.530255 -118.859904 225 7791ft 161kts
21-Jan-20 19:59 34.494151 -118.899967 227 8508ft 202kts
21-Jan-20 20:00 34.450973 -118.947765 227 8503ft 213kts
21-Jan-20 20:01 34.407027 -118.996424 227 8503ft 214kts
21-Jan-20 20:02 34.362863 -119.045186 227 8503ft 214kts
21-Jan-20 20:03 34.307755 -119.072923 169 8020ft 247kts
21-Jan-20 20:04 34.264913 -119.091787 259 6162ft 142kts
21-Jan-20 20:05 34.244367 -119.120209 185 4966ft 132kts
21-Jan-20 20:06 34.209151 -119.112508 146 3853ft 135kts
21-Jan-20 20:07 34.220269 -119.088356 301 3750ft 125kts
21-Jan-20 20:08 34.191071 -119.097523 142 3619ft 139kts
21-Jan-20 20:09 34.204961 -119.093991 261 2252ft 136kts
21-Jan-20 20:10 34.200705 -119.132201 267 1090ft 109kts
21-Jan-20 20:11 34.200599 -119.168161 271 635ft 95kts
21-Jan-20 20:12 34.200744 -119.198657 270 62ft 84kts
21-Jan-20 20:13 34.200034 -119.206957 143 39ft 0kts
21-Jan-20 20:14 34.200032 -119.206956 143 39ft 0kts
21-Jan-20 20:15 34.200031 -119.206954 139 39ft 0kts
21-Jan-20 20:16 34.200013 -119.206937 141 39ft 4kts
21-Jan-20 20:17 34.199746 -119.201361 91 39ft 20kts
21-Jan-20 20:18 34.199950 -119.197562 11 39ft 0kts
21-Jan-20 20:19 34.199950 -119.197562 11 39ft 0kts
21-Jan-20 20:20 34.199950 -119.197562 11 39ft 0kts
21-Jan-20 20:21 34.199950 -119.197562 11 39ft 0kts
21-Jan-20 20:22 34.200731 -119.197782 271 39ft 6kts
21-Jan-20 20:23 34.200740 -119.198686 271 39ft 45kts
21-Jan-20 20:24 34.200089 -119.240560 271 798ft 161kts
21-Jan-20 20:25 34.161636 -119.257549 161 1332ft 189kts
21-Jan-20 20:26 34.109805 -119.238350 165 1575ft 205kts
21-Jan-20 20:27 34.059829 -119.218907 155 2665ft 197kts
21-Jan-20 20:28 34.011003 -119.182470 150 2965ft 207kts
21-Jan-20 20:29 33.972038 -119.134441 118 3610ft 210kts
21-Jan-20 20:30 33.940524 -119.076195 129 4157ft 217kts
21-Jan-20 20:31 33.905250 -119.016013 109 4211ft 223kts
21-Jan-20 20:32 33.897291 -118.942528 118 3971ft 230kts
21-Jan-20 20:33 33.859974 -118.887515 132 4772ft 213kts
21-Jan-20 20:34 33.815236 -118.841191 149 5516ft 205kts
21-Jan-20 20:35 33.765466 -118.799825 147 5487ft 224kts
21-Jan-20 20:36 33.714382 -118.756179 147 5491ft 224kts
21-Jan-20 20:37 33.663421 -118.712822 147 5497ft 223kts
21-Jan-20 20:38 33.612563 -118.669675 147 5502ft 223kts
21-Jan-20 20:39 33.561970 -118.626813 147 5505ft 223kts
21-Jan-20 20:40 33.512912 -118.580497 116 4741ft 248kts
21-Jan-20 20:41 33.480214 -118.531361 135 2931ft 166kts
21-Jan-20 20:42 33.448664 -118.482707 127 3175ft 198kts
21-Jan-20 20:43 33.419173 -118.434710 127 2946ft 137kts
21-Jan-20 20:44 33.429344 -118.403961 90 2859ft 94kts
21-Jan-20 20:45 33.413764 -118.401334 235 2029ft 90kts
21-Jan-20 20:46 33.402598 -118.419821 218 1553ft 12kts
21-Jan-20 20:47 33.405058 -118.414981 51 1553ft 0kts
21-Jan-20 20:48 33.405058 -118.414981 51 1553ft 0kts
21-Jan-20 20:49 33.405058 -118.414981 51 1553ft 0kts
21-Jan-20 20:50 33.405058 -118.414981 51 1553ft 0kts
21-Jan-20 20:51 33.405058 -118.414981 51 1553ft 0kts
21-Jan-20 20:52 33.405058 -118.414981 51 1553ft 0kts
21-Jan-20 20:53 33.405058 -118.414981 51 1553ft 0kts
21-Jan-20 20:54 33.405058 -118.414981 51 1553ft 0kts
21-Jan-20 20:55 33.405682 -118.413911 53 1553ft 20kts
21-Jan-20 20:56 33.407147 -118.411432 47 1553ft 0kts
21-Jan-20 20:57 33.406462 -118.413321 233 1553ft 65kts
21-Jan-20 20:58 33.413500 -118.430514 41 2674ft 172kts
21-Jan-20 20:59 33.430088 -118.377418 69 4267ft 177kts
21-Jan-20 21:00 33.442464 -118.321162 74 5615ft 191kts

Navigation Log

Ident Type
Flight plan parsing failed, navigation log unavailable